sensor_id;sensor_type;location;lat;lon;timestamp;pressure;altitude;pressure_sealevel;temperature
68127;BMP180;54931;52.098;21.006;2022-12-07T00:01:45;99497.00;;;1.00
68127;BMP180;54931;52.098;21.006;2022-12-07T00:04:16;99499.60;;;1.00
68127;BMP180;54931;52.098;21.006;2022-12-07T00:06:50;99492.40;;;1.08
68127;BMP180;54931;52.098;21.006;2022-12-07T00:09:21;99490.60;;;1.10
68127;BMP180;54931;52.098;21.006;2022-12-07T00:11:51;99487.80;;;1.10
68127;BMP180;54931;52.098;21.006;2022-12-07T00:14:19;99484.60;;;1.16
68127;BMP180;54931;52.098;21.006;2022-12-07T00:16:50;99479.80;;;1.20
68127;BMP180;54931;52.098;21.006;2022-12-07T00:19:18;99474.40;;;1.20
68127;BMP180;54931;52.098;21.006;2022-12-07T00:21:47;99466.00;;;1.30
68127;BMP180;54931;52.098;21.006;2022-12-07T00:24:14;99468.80;;;1.30
68127;BMP180;54931;52.098;21.006;2022-12-07T00:26:43;99468.20;;;1.30
68127;BMP180;54931;52.098;21.006;2022-12-07T00:29:21;99467.80;;;1.30
68127;BMP180;54931;52.098;21.006;2022-12-07T00:31:50;99468.80;;;1.38
68127;BMP180;54931;52.098;21.006;2022-12-07T00:34:21;99464.60;;;1.40
68127;BMP180;54931;52.098;21.006;2022-12-07T00:36:50;99458.40;;;1.40
68127;BMP180;54931;52.098;21.006;2022-12-07T00:39:18;99458.00;;;1.50
68127;BMP180;54931;52.098;21.006;2022-12-07T00:41:46;99455.20;;;1.50
68127;BMP180;54931;52.098;21.006;2022-12-07T00:44:13;99456.00;;;1.60
68127;BMP180;54931;52.098;21.006;2022-12-07T00:46:41;99453.00;;;1.60
68127;BMP180;54931;52.098;21.006;2022-12-07T00:49:08;99455.40;;;1.62
68127;BMP180;54931;52.098;21.006;2022-12-07T00:51:36;99460.60;;;1.70
68127;BMP180;54931;52.098;21.006;2022-12-07T00:54:04;99458.80;;;1.70
68127;BMP180;54931;52.098;21.006;2022-12-07T00:56:31;99460.40;;;1.80
68127;BMP180;54931;52.098;21.006;2022-12-07T00:59:02;99457.20;;;1.80
68127;BMP180;54931;52.098;21.006;2022-12-07T01:01:35;99456.20;;;1.88
68127;BMP180;54931;52.098;21.006;2022-12-07T01:04:04;99464.20;;;1.90
68127;BMP180;54931;52.098;21.006;2022-12-07T01:06:32;99466.60;;;1.90
68127;BMP180;54931;52.098;21.006;2022-12-07T01:09:03;99463.60;;;1.98
68127;BMP180;54931;52.098;21.006;2022-12-07T01:11:32;99469.00;;;2.00
68127;BMP180;54931;52.098;21.006;2022-12-07T01:14:01;99467.40;;;2.00
68127;BMP180;54931;52.098;21.006;2022-12-07T01:16:31;99466.00;;;2.00
68127;BMP180;54931;52.098;21.006;2022-12-07T01:19:00;99464.60;;;2.00
68127;BMP180;54931;52.098;21.006;2022-12-07T01:21:33;99462.80;;;2.00
68127;BMP180;54931;52.098;21.006;2022-12-07T01:24:09;99466.80;;;2.10
68127;BMP180;54931;52.098;21.006;2022-12-07T01:26:36;99466.00;;;2.10
68127;BMP180;54931;52.098;21.006;2022-12-07T01:29:04;99464.40;;;2.10
68127;BMP180;54931;52.098;21.006;2022-12-07T01:31:33;99464.60;;;2.10
68127;BMP180;54931;52.098;21.006;2022-12-07T01:34:01;99467.80;;;2.10
68127;BMP180;54931;52.098;21.006;2022-12-07T01:36:32;99465.40;;;2.10
68127;BMP180;54931;52.098;21.006;2022-12-07T01:39:05;99469.20;;;2.10
68127;BMP180;54931;52.098;21.006;2022-12-07T01:41:37;99466.00;;;2.10
68127;BMP180;54931;52.098;21.006;2022-12-07T01:44:26;99460.40;;;2.10
68127;BMP180;54931;52.098;21.006;2022-12-07T01:47:00;99460.20;;;2.10
68127;BMP180;54931;52.098;21.006;2022-12-07T01:49:46;99461.20;;;2.10
68127;BMP180;54931;52.098;21.006;2022-12-07T01:52:31;99462.40;;;2.10
68127;BMP180;54931;52.098;21.006;2022-12-07T01:55:12;99460.00;;;2.10
68127;BMP180;54931;52.098;21.006;2022-12-07T01:57:54;99458.00;;;2.10
68127;BMP180;54931;52.098;21.006;2022-12-07T02:00:22;99457.40;;;2.10
68127;BMP180;54931;52.098;21.006;2022-12-07T02:03:04;99459.80;;;2.10
68127;BMP180;54931;52.098;21.006;2022-12-07T02:05:35;99457.00;;;2.10
68127;BMP180;54931;52.098;21.006;2022-12-07T02:08:04;99454.40;;;2.10
68127;BMP180;54931;52.098;21.006;2022-12-07T02:10:33;99450.60;;;2.10
68127;BMP180;54931;52.098;21.006;2022-12-07T02:13:16;99453.60;;;2.10
68127;BMP180;54931;52.098;21.006;2022-12-07T02:28:16;99447.40;;;2.10
68127;BMP180;54931;52.098;21.006;2022-12-07T02:30:48;99442.80;;;2.02
68127;BMP180;54931;52.098;21.006;2022-12-07T02:33:32;99436.80;;;2.00
68127;BMP180;54931;52.098;21.006;2022-12-07T02:36:06;99438.00;;;2.00
68127;BMP180;54931;52.098;21.006;2022-12-07T02:41:55;99436.40;;;2.00
68127;BMP180;54931;52.098;21.006;2022-12-07T02:44:27;99436.00;;;2.00
68127;BMP180;54931;52.098;21.006;2022-12-07T02:47:04;99434.00;;;2.00
68127;BMP180;54931;52.098;21.006;2022-12-07T02:49:35;99428.20;;;2.00
68127;BMP180;54931;52.098;21.006;2022-12-07T02:52:04;99429.60;;;2.00
68127;BMP180;54931;52.098;21.006;2022-12-07T02:54:31;99429.80;;;2.00
68127;BMP180;54931;52.098;21.006;2022-12-07T02:57:38;99433.60;;;2.00
68127;BMP180;54931;52.098;21.006;2022-12-07T03:00:16;99426.60;;;2.00
68127;BMP180;54931;52.098;21.006;2022-12-07T03:03:00;99424.20;;;2.00
68127;BMP180;54931;52.098;21.006;2022-12-07T03:06:08;99423.60;;;1.94
68127;BMP180;54931;52.098;21.006;2022-12-07T03:08:56;99420.60;;;1.90
68127;BMP180;54931;52.098;21.006;2022-12-07T03:14:38;99419.20;;;1.90
68127;BMP180;54931;52.098;21.006;2022-12-07T03:17:20;99423.60;;;1.90
68127;BMP180;54931;52.098;21.006;2022-12-07T03:19:54;99416.60;;;1.80
68127;BMP180;54931;52.098;21.006;2022-12-07T03:22:29;99418.00;;;1.80
68127;BMP180;54931;52.098;21.006;2022-12-07T03:25:02;99422.00;;;1.80
68127;BMP180;54931;52.098;21.006;2022-12-07T03:27:38;99418.20;;;1.70
68127;BMP180;54931;52.098;21.006;2022-12-07T03:30:12;99415.80;;;1.70
68127;BMP180;54931;52.098;21.006;2022-12-07T03:32:52;99416.60;;;1.70
68127;BMP180;54931;52.098;21.006;2022-12-07T03:35:46;99408.00;;;1.60
68127;BMP180;54931;52.098;21.006;2022-12-07T03:38:19;99411.80;;;1.54
68127;BMP180;54931;52.098;21.006;2022-12-07T03:41:01;99412.20;;;1.50
68127;BMP180;54931;52.098;21.006;2022-12-07T03:43:31;99413.20;;;1.50
68127;BMP180;54931;52.098;21.006;2022-12-07T03:52:45;99405.20;;;1.30
68127;BMP180;54931;52.098;21.006;2022-12-07T03:55:22;99399.20;;;1.30
68127;BMP180;54931;52.098;21.006;2022-12-07T03:57:59;99398.80;;;1.30
68127;BMP180;54931;52.098;21.006;2022-12-07T04:00:28;99395.20;;;1.30
68127;BMP180;54931;52.098;21.006;2022-12-07T04:02:56;99395.00;;;1.30
68127;BMP180;54931;52.098;21.006;2022-12-07T04:05:24;99396.20;;;1.28
68127;BMP180;54931;52.098;21.006;2022-12-07T04:07:52;99397.20;;;1.24
68127;BMP180;54931;52.098;21.006;2022-12-07T04:10:20;99393.80;;;1.20
68127;BMP180;54931;52.098;21.006;2022-12-07T04:12:48;99393.40;;;1.20
68127;BMP180;54931;52.098;21.006;2022-12-07T04:15:15;99393.20;;;1.20
68127;BMP180;54931;52.098;21.006;2022-12-07T04:17:43;99393.60;;;1.20
68127;BMP180;54931;52.098;21.006;2022-12-07T04:20:12;99395.20;;;1.12
68127;BMP180;54931;52.098;21.006;2022-12-07T04:22:40;99394.00;;;1.10
68127;BMP180;54931;52.098;21.006;2022-12-07T04:25:08;99393.40;;;1.10
68127;BMP180;54931;52.098;21.006;2022-12-07T04:27:36;99390.20;;;1.10
68127;BMP180;54931;52.098;21.006;2022-12-07T04:30:05;99390.80;;;1.10
68127;BMP180;54931;52.098;21.006;2022-12-07T04:32:34;99390.60;;;1.02
68127;BMP180;54931;52.098;21.006;2022-12-07T04:35:03;99388.40;;;1.00
68127;BMP180;54931;52.098;21.006;2022-12-07T04:37:34;99387.60;;;1.00
68127;BMP180;54931;52.098;21.006;2022-12-07T04:40:04;99387.60;;;1.00
68127;BMP180;54931;52.098;21.006;2022-12-07T04:42:32;99388.40;;;1.00
68127;BMP180;54931;52.098;21.006;2022-12-07T04:45:00;99388.40;;;1.00
68127;BMP180;54931;52.098;21.006;2022-12-07T04:47:28;99393.20;;;0.98
68127;BMP180;54931;52.098;21.006;2022-12-07T04:49:57;99385.60;;;0.90
68127;BMP180;54931;52.098;21.006;2022-12-07T04:52:25;99383.80;;;0.90
68127;BMP180;54931;52.098;21.006;2022-12-07T04:54:53;99380.00;;;0.90
68127;BMP180;54931;52.098;21.006;2022-12-07T04:57:21;99376.80;;;0.90
68127;BMP180;54931;52.098;21.006;2022-12-07T04:59:48;99377.40;;;0.90
68127;BMP180;54931;52.098;21.006;2022-12-07T05:02:16;99377.40;;;0.88
68127;BMP180;54931;52.098;21.006;2022-12-07T05:04:43;99370.60;;;0.84
68127;BMP180;54931;52.098;21.006;2022-12-07T05:07:11;99371.20;;;0.80
68127;BMP180;54931;52.098;21.006;2022-12-07T05:09:38;99367.60;;;0.80
68127;BMP180;54931;52.098;21.006;2022-12-07T05:12:06;99365.20;;;0.80
68127;BMP180;54931;52.098;21.006;2022-12-07T05:14:34;99363.20;;;0.74
68127;BMP180;54931;52.098;21.006;2022-12-07T05:17:02;99363.20;;;0.70
68127;BMP180;54931;52.098;21.006;2022-12-07T05:19:29;99363.80;;;0.70
68127;BMP180;54931;52.098;21.006;2022-12-07T05:21:57;99366.20;;;0.70
68127;BMP180;54931;52.098;21.006;2022-12-07T05:24:24;99356.80;;;0.70
68127;BMP180;54931;52.098;21.006;2022-12-07T05:26:52;99355.20;;;0.70
68127;BMP180;54931;52.098;21.006;2022-12-07T05:29:20;99353.80;;;0.70
68127;BMP180;54931;52.098;21.006;2022-12-07T05:31:47;99359.20;;;0.68
68127;BMP180;54931;52.098;21.006;2022-12-07T05:34:15;99360.00;;;0.70
68127;BMP180;54931;52.098;21.006;2022-12-07T05:36:43;99359.60;;;0.70
68127;BMP180;54931;52.098;21.006;2022-12-07T05:39:10;99358.40;;;0.62
68127;BMP180;54931;52.098;21.006;2022-12-07T05:41:39;99356.40;;;0.60
68127;BMP180;54931;52.098;21.006;2022-12-07T05:44:25;99359.00;;;0.60
68127;BMP180;54931;52.098;21.006;2022-12-07T05:46:53;99359.00;;;0.60
68127;BMP180;54931;52.098;21.006;2022-12-07T05:49:21;99362.80;;;0.60
68127;BMP180;54931;52.098;21.006;2022-12-07T05:51:48;99364.20;;;0.60
68127;BMP180;54931;52.098;21.006;2022-12-07T05:54:16;99363.60;;;0.60
68127;BMP180;54931;52.098;21.006;2022-12-07T05:56:44;99365.40;;;0.60
68127;BMP180;54931;52.098;21.006;2022-12-07T05:59:12;99365.40;;;0.60
68127;BMP180;54931;52.098;21.006;2022-12-07T06:02:04;99361.80;;;0.60
68127;BMP180;54931;52.098;21.006;2022-12-07T06:04:36;99363.20;;;0.60
68127;BMP180;54931;52.098;21.006;2022-12-07T06:07:05;99360.80;;;0.60
68127;BMP180;54931;52.098;21.006;2022-12-07T06:09:34;99360.40;;;0.60
68127;BMP180;54931;52.098;21.006;2022-12-07T06:12:03;99362.80;;;0.60
68127;BMP180;54931;52.098;21.006;2022-12-07T06:14:51;99361.00;;;0.60
68127;BMP180;54931;52.098;21.006;2022-12-07T06:17:19;99363.40;;;0.60
68127;BMP180;54931;52.098;21.006;2022-12-07T06:19:46;99361.00;;;0.58
68127;BMP180;54931;52.098;21.006;2022-12-07T06:22:14;99358.40;;;0.60
68127;BMP180;54931;52.098;21.006;2022-12-07T06:24:43;99360.80;;;0.60
68127;BMP180;54931;52.098;21.006;2022-12-07T06:27:11;99362.40;;;0.56
68127;BMP180;54931;52.098;21.006;2022-12-07T06:29:39;99359.00;;;0.52
68127;BMP180;54931;52.098;21.006;2022-12-07T06:32:07;99358.20;;;0.50
68127;BMP180;54931;52.098;21.006;2022-12-07T06:34:35;99360.60;;;0.50
68127;BMP180;54931;52.098;21.006;2022-12-07T06:37:03;99356.20;;;0.50
68127;BMP180;54931;52.098;21.006;2022-12-07T06:39:31;99357.20;;;0.50
68127;BMP180;54931;52.098;21.006;2022-12-07T06:41:59;99359.80;;;0.52
68127;BMP180;54931;52.098;21.006;2022-12-07T06:44:27;99355.40;;;0.50
68127;BMP180;54931;52.098;21.006;2022-12-07T06:46:55;99356.20;;;0.50
68127;BMP180;54931;52.098;21.006;2022-12-07T06:49:24;99357.20;;;0.50
68127;BMP180;54931;52.098;21.006;2022-12-07T06:51:52;99354.40;;;0.50
68127;BMP180;54931;52.098;21.006;2022-12-07T06:54:20;99359.40;;;0.50
68127;BMP180;54931;52.098;21.006;2022-12-07T06:56:47;99357.20;;;0.50
68127;BMP180;54931;52.098;21.006;2022-12-07T06:59:15;99353.60;;;0.50
68127;BMP180;54931;52.098;21.006;2022-12-07T07:01:43;99353.40;;;0.50
68127;BMP180;54931;52.098;21.006;2022-12-07T07:04:11;99354.80;;;0.50
68127;BMP180;54931;52.098;21.006;2022-12-07T07:06:39;99356.20;;;0.50
68127;BMP180;54931;52.098;21.006;2022-12-07T07:09:06;99361.00;;;0.56
68127;BMP180;54931;52.098;21.006;2022-12-07T07:11:34;99362.80;;;0.60
68127;BMP180;54931;52.098;21.006;2022-12-07T07:14:01;99357.60;;;0.60
68127;BMP180;54931;52.098;21.006;2022-12-07T07:16:30;99357.00;;;0.60
68127;BMP180;54931;52.098;21.006;2022-12-07T07:18:58;99356.80;;;0.60
68127;BMP180;54931;52.098;21.006;2022-12-07T07:21:26;99357.00;;;0.60
68127;BMP180;54931;52.098;21.006;2022-12-07T07:23:53;99357.40;;;0.58
68127;BMP180;54931;52.098;21.006;2022-12-07T07:26:21;99357.40;;;0.56
68127;BMP180;54931;52.098;21.006;2022-12-07T07:28:49;99358.00;;;0.60
68127;BMP180;54931;52.098;21.006;2022-12-07T07:31:16;99356.00;;;0.60
68127;BMP180;54931;52.098;21.006;2022-12-07T07:33:46;99362.40;;;0.60
68127;BMP180;54931;52.098;21.006;2022-12-07T07:36:14;99359.80;;;0.60
68127;BMP180;54931;52.098;21.006;2022-12-07T07:38:42;99364.40;;;0.60
68127;BMP180;54931;52.098;21.006;2022-12-07T07:41:09;99364.00;;;0.60
68127;BMP180;54931;52.098;21.006;2022-12-07T07:43:37;99367.80;;;0.60
68127;BMP180;54931;52.098;21.006;2022-12-07T07:46:05;99366.40;;;0.60
68127;BMP180;54931;52.098;21.006;2022-12-07T07:48:33;99362.40;;;0.60
68127;BMP180;54931;52.098;21.006;2022-12-07T07:51:06;99359.20;;;0.60
68127;BMP180;54931;52.098;21.006;2022-12-07T07:53:34;99361.60;;;0.62
68127;BMP180;54931;52.098;21.006;2022-12-07T07:56:03;99362.40;;;0.60
68127;BMP180;54931;52.098;21.006;2022-12-07T07:58:31;99362.00;;;0.60
68127;BMP180;54931;52.098;21.006;2022-12-07T08:01:06;99366.20;;;0.70
68127;BMP180;54931;52.098;21.006;2022-12-07T08:03:35;99364.00;;;0.70
68127;BMP180;54931;52.098;21.006;2022-12-07T08:06:04;99363.40;;;0.70
68127;BMP180;54931;52.098;21.006;2022-12-07T08:08:32;99365.00;;;0.70
68127;BMP180;54931;52.098;21.006;2022-12-07T08:10:59;99362.80;;;0.70
68127;BMP180;54931;52.098;21.006;2022-12-07T08:13:28;99368.60;;;0.70
68127;BMP180;54931;52.098;21.006;2022-12-07T08:15:56;99369.60;;;0.70
68127;BMP180;54931;52.098;21.006;2022-12-07T08:18:24;99371.00;;;0.78
68127;BMP180;54931;52.098;21.006;2022-12-07T08:20:51;99372.80;;;0.80
68127;BMP180;54931;52.098;21.006;2022-12-07T08:23:19;99370.80;;;0.80
68127;BMP180;54931;52.098;21.006;2022-12-07T08:25:47;99372.60;;;0.80
68127;BMP180;54931;52.098;21.006;2022-12-07T08:28:15;99374.40;;;0.84
68127;BMP180;54931;52.098;21.006;2022-12-07T08:30:43;99369.80;;;0.90
68127;BMP180;54931;52.098;21.006;2022-12-07T08:33:11;99372.00;;;0.90
68127;BMP180;54931;52.098;21.006;2022-12-07T08:35:39;99380.20;;;0.90
68127;BMP180;54931;52.098;21.006;2022-12-07T08:38:06;99380.00;;;0.92
68127;BMP180;54931;52.098;21.006;2022-12-07T08:40:34;99384.00;;;1.00
68127;BMP180;54931;52.098;21.006;2022-12-07T08:43:03;99385.80;;;1.00
68127;BMP180;54931;52.098;21.006;2022-12-07T08:45:31;99388.80;;;1.00
68127;BMP180;54931;52.098;21.006;2022-12-07T08:48:08;99389.40;;;1.10
68127;BMP180;54931;52.098;21.006;2022-12-07T08:50:38;99386.00;;;1.10
68127;BMP180;54931;52.098;21.006;2022-12-07T08:53:06;99388.40;;;1.20
68127;BMP180;54931;52.098;21.006;2022-12-07T08:55:34;99385.80;;;1.26
68127;BMP180;54931;52.098;21.006;2022-12-07T08:58:03;99388.40;;;1.30
68127;BMP180;54931;52.098;21.006;2022-12-07T09:00:31;99387.40;;;1.40
68127;BMP180;54931;52.098;21.006;2022-12-07T09:02:59;99389.80;;;1.50
68127;BMP180;54931;52.098;21.006;2022-12-07T09:05:26;99386.40;;;1.54
68127;BMP180;54931;52.098;21.006;2022-12-07T09:07:58;99390.20;;;1.60
68127;BMP180;54931;52.098;21.006;2022-12-07T09:10:29;99383.80;;;1.68
68127;BMP180;54931;52.098;21.006;2022-12-07T09:12:58;99378.80;;;1.70
68127;BMP180;54931;52.098;21.006;2022-12-07T09:15:29;99377.60;;;1.70
68127;BMP180;54931;52.098;21.006;2022-12-07T09:17:59;99372.60;;;1.80
68127;BMP180;54931;52.098;21.006;2022-12-07T09:20:26;99371.80;;;1.80
68127;BMP180;54931;52.098;21.006;2022-12-07T09:22:54;99371.40;;;1.80
68127;BMP180;54931;52.098;21.006;2022-12-07T09:25:22;99366.00;;;1.80
68127;BMP180;54931;52.098;21.006;2022-12-07T09:27:58;99360.80;;;1.86
68127;BMP180;54931;52.098;21.006;2022-12-07T09:30:27;99366.40;;;1.90
68127;BMP180;54931;52.098;21.006;2022-12-07T09:32:57;99361.00;;;1.90
68127;BMP180;54931;52.098;21.006;2022-12-07T09:35:25;99361.60;;;1.90
68127;BMP180;54931;52.098;21.006;2022-12-07T09:37:53;99358.00;;;1.90
68127;BMP180;54931;52.098;21.006;2022-12-07T09:40:23;99360.20;;;1.90
68127;BMP180;54931;52.098;21.006;2022-12-07T09:42:54;99359.60;;;2.00
68127;BMP180;54931;52.098;21.006;2022-12-07T09:45:35;99358.40;;;2.00
68127;BMP180;54931;52.098;21.006;2022-12-07T09:48:04;99354.40;;;2.00
68127;BMP180;54931;52.098;21.006;2022-12-07T09:50:33;99356.20;;;2.00
68127;BMP180;54931;52.098;21.006;2022-12-07T09:53:24;99352.20;;;2.04
68127;BMP180;54931;52.098;21.006;2022-12-07T09:55:53;99361.40;;;2.10
68127;BMP180;54931;52.098;21.006;2022-12-07T09:58:27;99360.60;;;2.10
68127;BMP180;54931;52.098;21.006;2022-12-07T10:03:38;99360.00;;;2.10
68127;BMP180;54931;52.098;21.006;2022-12-07T10:06:06;99356.60;;;2.10
68127;BMP180;54931;52.098;21.006;2022-12-07T10:08:34;99347.40;;;2.10
68127;BMP180;54931;52.098;21.006;2022-12-07T10:11:03;99346.80;;;2.18
68127;BMP180;54931;52.098;21.006;2022-12-07T10:13:41;99341.00;;;2.20
68127;BMP180;54931;52.098;21.006;2022-12-07T10:18:53;99335.00;;;2.20
68127;BMP180;54931;52.098;21.006;2022-12-07T10:21:24;99332.00;;;2.28
68127;BMP180;54931;52.098;21.006;2022-12-07T10:26:52;99336.20;;;2.30
68127;BMP180;54931;52.098;21.006;2022-12-07T10:29:31;99339.80;;;2.30
68127;BMP180;54931;52.098;21.006;2022-12-07T10:34:42;99331.60;;;2.30
68127;BMP180;54931;52.098;21.006;2022-12-07T10:40:01;99344.00;;;2.30
68127;BMP180;54931;52.098;21.006;2022-12-07T10:42:32;99345.40;;;2.30
68127;BMP180;54931;52.098;21.006;2022-12-07T10:45:29;99343.40;;;2.30
68127;BMP180;54931;52.098;21.006;2022-12-07T10:51:02;99346.40;;;2.40
68127;BMP180;54931;52.098;21.006;2022-12-07T11:03:24;99347.40;;;2.50
68127;BMP180;54931;52.098;21.006;2022-12-07T11:18:22;99338.60;;;2.76
68127;BMP180;54931;52.098;21.006;2022-12-07T11:24:10;99332.80;;;2.78
68127;BMP180;54931;52.098;21.006;2022-12-07T11:35:52;99336.00;;;2.80
68127;BMP180;54931;52.098;21.006;2022-12-07T11:38:41;99328.40;;;2.90
68127;BMP180;54931;52.098;21.006;2022-12-07T11:41:10;99329.00;;;2.88
68127;BMP180;54931;52.098;21.006;2022-12-07T11:44:47;99328.40;;;2.90
68127;BMP180;54931;52.098;21.006;2022-12-07T11:47:30;99327.00;;;2.80
68127;BMP180;54931;52.098;21.006;2022-12-07T11:50:27;99325.00;;;2.80
68127;BMP180;54931;52.098;21.006;2022-12-07T11:55:49;99325.40;;;2.80
68127;BMP180;54931;52.098;21.006;2022-12-07T12:03:48;99323.60;;;2.80
68127;BMP180;54931;52.098;21.006;2022-12-07T12:06:16;99323.80;;;2.70
68127;BMP180;54931;52.098;21.006;2022-12-07T12:12:02;99321.60;;;2.80
68127;BMP180;54931;52.098;21.006;2022-12-07T12:23:50;99309.40;;;2.70
68127;BMP180;54931;52.098;21.006;2022-12-07T12:26:27;99307.20;;;2.76
68127;BMP180;54931;52.098;21.006;2022-12-07T12:29:06;99309.00;;;2.80
68127;BMP180;54931;52.098;21.006;2022-12-07T12:31:40;99303.60;;;2.80
68127;BMP180;54931;52.098;21.006;2022-12-07T12:37:40;99299.00;;;2.70
68127;BMP180;54931;52.098;21.006;2022-12-07T12:42:51;99291.20;;;2.68
68127;BMP180;54931;52.098;21.006;2022-12-07T12:48:03;99294.40;;;2.50
68127;BMP180;54931;52.098;21.006;2022-12-07T12:50:37;99286.20;;;2.48
68127;BMP180;54931;52.098;21.006;2022-12-07T12:53:34;99288.40;;;2.40
68127;BMP180;54931;52.098;21.006;2022-12-07T12:56:29;99285.20;;;2.40
68127;BMP180;54931;52.098;21.006;2022-12-07T12:59:28;99288.00;;;2.30
68127;BMP180;54931;52.098;21.006;2022-12-07T13:02:22;99284.00;;;2.30
68127;BMP180;54931;52.098;21.006;2022-12-07T13:04:56;99283.40;;;2.30
68127;BMP180;54931;52.098;21.006;2022-12-07T13:15:55;99277.40;;;2.20
68127;BMP180;54931;52.098;21.006;2022-12-07T13:18:42;99273.40;;;2.20
68127;BMP180;54931;52.098;21.006;2022-12-07T13:31:40;99272.20;;;2.10
68127;BMP180;54931;52.098;21.006;2022-12-07T13:37:20;99269.60;;;2.10
68127;BMP180;54931;52.098;21.006;2022-12-07T13:40:09;99271.20;;;2.12
68127;BMP180;54931;52.098;21.006;2022-12-07T13:42:44;99272.60;;;2.16
68127;BMP180;54931;52.098;21.006;2022-12-07T13:45:44;99274.00;;;2.18
68127;BMP180;54931;52.098;21.006;2022-12-07T13:48:32;99276.80;;;2.18
68127;BMP180;54931;52.098;21.006;2022-12-07T13:51:03;99277.40;;;2.20
68127;BMP180;54931;52.098;21.006;2022-12-07T13:53:31;99282.80;;;2.20
68127;BMP180;54931;52.098;21.006;2022-12-07T13:56:01;99279.60;;;2.20
68127;BMP180;54931;52.098;21.006;2022-12-07T13:58:31;99285.60;;;2.14
68127;BMP180;54931;52.098;21.006;2022-12-07T14:01:00;99288.20;;;2.12
68127;BMP180;54931;52.098;21.006;2022-12-07T14:03:34;99282.60;;;2.10
68127;BMP180;54931;52.098;21.006;2022-12-07T14:06:18;99285.60;;;2.12
68127;BMP180;54931;52.098;21.006;2022-12-07T14:08:47;99276.60;;;2.10
68127;BMP180;54931;52.098;21.006;2022-12-07T14:11:20;99284.20;;;2.00
68127;BMP180;54931;52.098;21.006;2022-12-07T14:14:03;99288.40;;;2.00
68127;BMP180;54931;52.098;21.006;2022-12-07T14:16:36;99285.40;;;2.00
68127;BMP180;54931;52.098;21.006;2022-12-07T14:19:55;99284.20;;;2.00
68127;BMP180;54931;52.098;21.006;2022-12-07T14:22:36;99282.80;;;1.94
68127;BMP180;54931;52.098;21.006;2022-12-07T14:25:24;99283.40;;;1.90
68127;BMP180;54931;52.098;21.006;2022-12-07T14:27:59;99286.00;;;1.90
68127;BMP180;54931;52.098;21.006;2022-12-07T14:30:32;99288.40;;;1.80
68127;BMP180;54931;52.098;21.006;2022-12-07T14:33:05;99288.80;;;1.80
68127;BMP180;54931;52.098;21.006;2022-12-07T14:35:33;99287.20;;;1.70
68127;BMP180;54931;52.098;21.006;2022-12-07T14:38:01;99289.00;;;1.70
68127;BMP180;54931;52.098;21.006;2022-12-07T14:40:29;99285.60;;;1.68
68127;BMP180;54931;52.098;21.006;2022-12-07T14:43:02;99284.80;;;1.60
68127;BMP180;54931;52.098;21.006;2022-12-07T14:45:31;99285.80;;;1.60
68127;BMP180;54931;52.098;21.006;2022-12-07T14:48:00;99286.60;;;1.60
68127;BMP180;54931;52.098;21.006;2022-12-07T14:50:40;99288.40;;;1.60
68127;BMP180;54931;52.098;21.006;2022-12-07T14:53:17;99286.80;;;1.50
68127;BMP180;54931;52.098;21.006;2022-12-07T14:56:05;99287.00;;;1.50
68127;BMP180;54931;52.098;21.006;2022-12-07T14:58:33;99284.40;;;1.40
68127;BMP180;54931;52.098;21.006;2022-12-07T15:01:01;99280.20;;;1.40
68127;BMP180;54931;52.098;21.006;2022-12-07T15:03:29;99279.40;;;1.30
68127;BMP180;54931;52.098;21.006;2022-12-07T15:05:58;99282.00;;;1.28
68127;BMP180;54931;52.098;21.006;2022-12-07T15:08:26;99274.40;;;1.20
68127;BMP180;54931;52.098;21.006;2022-12-07T15:10:54;99276.20;;;1.18
68127;BMP180;54931;52.098;21.006;2022-12-07T15:13:21;99274.60;;;1.10
68127;BMP180;54931;52.098;21.006;2022-12-07T15:16:16;99271.80;;;1.00
68127;BMP180;54931;52.098;21.006;2022-12-07T15:18:46;99272.20;;;1.00
68127;BMP180;54931;52.098;21.006;2022-12-07T15:21:15;99272.40;;;0.90
68127;BMP180;54931;52.098;21.006;2022-12-07T15:23:43;99265.00;;;0.90
68127;BMP180;54931;52.098;21.006;2022-12-07T15:26:13;99264.60;;;0.80
68127;BMP180;54931;52.098;21.006;2022-12-07T15:28:41;99270.00;;;0.80
68127;BMP180;54931;52.098;21.006;2022-12-07T15:31:14;99264.00;;;0.76
68127;BMP180;54931;52.098;21.006;2022-12-07T15:33:43;99261.40;;;0.70
68127;BMP180;54931;52.098;21.006;2022-12-07T15:36:21;99270.80;;;0.70
68127;BMP180;54931;52.098;21.006;2022-12-07T15:38:49;99259.60;;;0.72
68127;BMP180;54931;52.098;21.006;2022-12-07T15:41:18;99260.00;;;0.74
68127;BMP180;54931;52.098;21.006;2022-12-07T15:43:46;99265.20;;;0.80
68127;BMP180;54931;52.098;21.006;2022-12-07T15:46:36;99266.20;;;0.80
68127;BMP180;54931;52.098;21.006;2022-12-07T15:49:18;99262.00;;;0.80
68127;BMP180;54931;52.098;21.006;2022-12-07T15:51:46;99262.20;;;0.80
68127;BMP180;54931;52.098;21.006;2022-12-07T15:54:25;99262.00;;;0.80
68127;BMP180;54931;52.098;21.006;2022-12-07T15:56:54;99261.40;;;0.80
68127;BMP180;54931;52.098;21.006;2022-12-07T15:59:25;99264.20;;;0.80
68127;BMP180;54931;52.098;21.006;2022-12-07T16:01:53;99265.20;;;0.80
68127;BMP180;54931;52.098;21.006;2022-12-07T16:04:21;99258.60;;;0.90
68127;BMP180;54931;52.098;21.006;2022-12-07T16:06:48;99258.80;;;0.90
68127;BMP180;54931;52.098;21.006;2022-12-07T16:09:18;99261.00;;;0.90
68127;BMP180;54931;52.098;21.006;2022-12-07T16:11:47;99255.40;;;0.90
68127;BMP180;54931;52.098;21.006;2022-12-07T16:14:14;99258.00;;;1.00
68127;BMP180;54931;52.098;21.006;2022-12-07T16:16:43;99259.80;;;1.00
68127;BMP180;54931;52.098;21.006;2022-12-07T16:19:11;99256.60;;;1.00
68127;BMP180;54931;52.098;21.006;2022-12-07T16:21:39;99262.40;;;1.00
68127;BMP180;54931;52.098;21.006;2022-12-07T16:24:08;99264.80;;;1.04
68127;BMP180;54931;52.098;21.006;2022-12-07T16:26:37;99267.60;;;1.10
68127;BMP180;54931;52.098;21.006;2022-12-07T16:29:05;99263.40;;;1.10
68127;BMP180;54931;52.098;21.006;2022-12-07T16:31:33;99263.00;;;1.10
68127;BMP180;54931;52.098;21.006;2022-12-07T16:34:01;99268.00;;;1.10
68127;BMP180;54931;52.098;21.006;2022-12-07T16:36:29;99263.80;;;1.02
68127;BMP180;54931;52.098;21.006;2022-12-07T16:38:59;99258.40;;;1.00
68127;BMP180;54931;52.098;21.006;2022-12-07T16:41:28;99255.80;;;1.00
68127;BMP180;54931;52.098;21.006;2022-12-07T16:43:56;99248.60;;;0.94
68127;BMP180;54931;52.098;21.006;2022-12-07T16:46:24;99250.40;;;0.90